createdAt,value
2023-01-23T00:01:48.553Z,24.10
2023-01-23T00:04:01.254Z,25.90
2023-01-23T00:06:16.595Z,26.20
2023-01-23T00:08:29.293Z,25.90
2023-01-23T00:10:41.873Z,25.70
2023-01-23T00:12:54.488Z,25.00
2023-01-23T00:15:07.688Z,27.10
2023-01-23T00:17:20.257Z,25.20
2023-01-23T00:19:32.812Z,25.50
2023-01-23T00:21:45.369Z,25.80
2023-01-23T00:23:59.563Z,26.20
2023-01-23T00:26:15.803Z,28.40
2023-01-23T00:28:28.398Z,26.60
2023-01-23T00:30:41.022Z,26.70
2023-01-23T00:32:53.654Z,25.90
2023-01-23T00:35:06.614Z,24.90
2023-01-23T00:37:19.261Z,27.40
2023-01-23T00:39:31.923Z,28.40
2023-01-23T00:41:46.208Z,28.60
2023-01-23T00:43:58.953Z,27.00
2023-01-23T00:46:11.761Z,27.80
2023-01-23T00:48:24.971Z,26.20
2023-01-23T00:50:37.539Z,27.20
2023-01-23T00:52:50.120Z,28.50
2023-01-23T00:55:03.623Z,26.60
2023-01-23T00:57:16.316Z,25.90
2023-01-23T00:59:28.933Z,26.20
2023-01-23T01:01:41.556Z,26.30
2023-01-23T01:03:54.225Z,27.30
2023-01-23T01:06:06.856Z,27.00
2023-01-23T01:08:19.631Z,26.00
2023-01-23T01:10:32.897Z,27.30
2023-01-23T01:12:47.006Z,26.90
2023-01-23T01:14:59.597Z,27.40
2023-01-23T01:17:12.204Z,27.30
2023-01-23T01:19:24.757Z,26.80
2023-01-23T01:21:38.878Z,25.00
2023-01-23T01:23:51.514Z,26.50
2023-01-23T01:26:05.267Z,28.70
2023-01-23T01:28:18.681Z,28.00
2023-01-23T01:30:31.241Z,28.20
2023-01-23T01:32:44.562Z,27.90
2023-01-23T01:34:57.140Z,27.20
2023-01-23T01:37:09.704Z,27.50
2023-01-23T01:39:22.359Z,29.30
2023-01-23T01:41:35.795Z,25.90
2023-01-23T01:43:48.412Z,25.00
2023-01-23T01:46:27.996Z,26.10
2023-01-23T01:49:07.904Z,25.50
2023-01-23T01:51:31.953Z,25.90
2023-01-23T01:53:49.679Z,26.20
2023-01-23T01:56:02.888Z,26.20
2023-01-23T01:58:15.701Z,26.80
2023-01-23T02:00:28.305Z,23.60
2023-01-23T02:02:52.434Z,25.10
2023-01-23T02:05:12.097Z,26.20
2023-01-23T02:07:32.592Z,26.50
2023-01-23T02:09:45.506Z,27.70
2023-01-23T02:11:58.067Z,28.00
2023-01-23T02:14:11.507Z,29.10
2023-01-23T02:16:29.532Z,29.40
2023-01-23T02:18:47.224Z,27.50
2023-01-23T02:21:03.855Z,28.90
2023-01-23T02:23:42.528Z,30.00
2023-01-23T02:26:00.290Z,28.70
2023-01-23T02:28:15.698Z,29.60
2023-01-23T02:30:28.430Z,30.20
2023-01-23T02:32:41.095Z,28.80
2023-01-23T02:34:57.341Z,30.10
2023-01-23T02:37:10.231Z,29.00
2023-01-23T02:39:22.849Z,30.70
2023-01-23T02:41:38.344Z,32.10
2023-01-23T02:43:52.304Z,27.70
2023-01-23T02:46:06.585Z,31.40
2023-01-23T02:48:20.068Z,30.80
2023-01-23T02:50:32.684Z,32.90
2023-01-23T02:52:45.873Z,31.50
2023-01-23T02:54:58.482Z,32.30
2023-01-23T02:57:11.067Z,32.80
2023-01-23T02:59:42.322Z,32.40
2023-01-23T03:01:55.497Z,33.10
2023-01-23T03:04:08.106Z,35.30
2023-01-23T03:06:21.106Z,34.40
2023-01-23T03:08:36.128Z,35.50
2023-01-23T03:10:48.825Z,34.60
2023-01-23T03:13:03.446Z,36.50
2023-01-23T03:15:16.114Z,36.50
2023-01-23T03:17:28.857Z,35.70
2023-01-23T03:19:41.461Z,35.50
2023-01-23T03:21:54.742Z,35.60
2023-01-23T03:24:09.583Z,35.50
2023-01-23T03:26:22.310Z,35.20
2023-01-23T03:28:53.453Z,35.10
2023-01-23T03:31:06.216Z,36.80
2023-01-23T03:33:18.899Z,36.70
2023-01-23T03:35:31.566Z,37.60
2023-01-23T03:37:45.087Z,36.70
2023-01-23T03:40:16.475Z,37.10
2023-01-23T03:42:29.015Z,39.20
2023-01-23T03:44:41.713Z,39.00
2023-01-23T03:46:54.298Z,42.30
2023-01-23T03:49:06.967Z,42.40
2023-01-23T03:51:19.741Z,39.50
2023-01-23T03:53:32.371Z,43.40
2023-01-23T03:55:46.396Z,41.60
2023-01-23T03:57:58.909Z,42.40
2023-01-23T04:00:13.815Z,44.70
2023-01-23T04:02:26.344Z,46.20
2023-01-23T04:04:39.217Z,44.30
2023-01-23T04:06:51.926Z,43.70
2023-01-23T04:09:05.099Z,47.20
2023-01-23T04:11:17.756Z,46.40
2023-01-23T04:13:30.470Z,45.40
2023-01-23T04:15:43.276Z,47.00
2023-01-23T04:17:55.891Z,48.20
2023-01-23T04:20:09.263Z,45.10
2023-01-23T04:22:21.787Z,46.80
2023-01-23T04:24:34.346Z,45.60
2023-01-23T04:26:46.902Z,47.30
2023-01-23T04:28:59.499Z,44.90
2023-01-23T04:31:12.163Z,43.70
2023-01-23T04:33:24.804Z,44.50
2023-01-23T04:35:37.400Z,44.60
2023-01-23T04:37:50.018Z,42.10
2023-01-23T04:40:02.580Z,42.60
2023-01-23T04:42:15.122Z,45.40
2023-01-23T04:44:27.678Z,41.90
2023-01-23T04:46:40.161Z,44.70
2023-01-23T04:48:52.682Z,42.80
2023-01-23T04:51:05.519Z,44.50
2023-01-23T04:53:18.181Z,46.10
2023-01-23T04:55:30.902Z,45.70
2023-01-23T04:57:43.668Z,47.80
2023-01-23T04:59:56.222Z,47.90
2023-01-23T05:02:09.676Z,44.40
2023-01-23T05:04:22.431Z,45.30
2023-01-23T05:06:35.275Z,48.30
2023-01-23T05:08:47.821Z,46.00
2023-01-23T05:11:00.436Z,47.90
2023-01-23T05:13:12.969Z,46.50
2023-01-23T05:15:25.591Z,45.80
2023-01-23T05:17:38.434Z,46.90
2023-01-23T05:19:51.128Z,46.10
2023-01-23T05:22:04.052Z,47.00
2023-01-23T05:24:16.741Z,47.60
2023-01-23T05:26:29.360Z,46.80
2023-01-23T05:28:41.898Z,45.20
2023-01-23T05:30:54.875Z,48.80
2023-01-23T05:33:07.524Z,46.80
2023-01-23T05:35:20.403Z,50.90
2023-01-23T05:37:32.944Z,46.60
2023-01-23T05:39:45.622Z,48.20
2023-01-23T05:41:58.796Z,48.10
2023-01-23T05:44:11.360Z,48.00
2023-01-23T05:46:24.002Z,50.20
2023-01-23T05:48:36.641Z,47.50
2023-01-23T05:50:49.211Z,48.30
2023-01-23T05:53:01.890Z,47.70
2023-01-23T05:55:14.592Z,48.90
2023-01-23T05:57:27.352Z,46.10
2023-01-23T05:59:40.104Z,44.90
2023-01-23T06:01:52.664Z,45.50
2023-01-23T06:04:05.290Z,44.00
2023-01-23T06:06:18.064Z,42.20
2023-01-23T06:08:30.689Z,42.60
2023-01-23T06:10:43.269Z,42.30
2023-01-23T06:12:55.820Z,40.20
2023-01-23T06:15:08.780Z,41.70
2023-01-23T06:17:21.326Z,40.50
2023-01-23T06:19:33.988Z,38.80
2023-01-23T06:21:46.511Z,39.80
2023-01-23T06:24:00.147Z,39.40
2023-01-23T06:26:13.779Z,39.20
2023-01-23T06:28:26.389Z,40.90
2023-01-23T06:30:39.157Z,40.10
2023-01-23T06:32:51.758Z,40.70
2023-01-23T06:35:05.041Z,39.30
2023-01-23T06:37:17.596Z,39.30
2023-01-23T06:39:30.246Z,39.70
2023-01-23T06:41:43.929Z,39.40
2023-01-23T06:43:56.540Z,39.70
2023-01-23T06:46:10.338Z,40.70
2023-01-23T06:48:23.145Z,40.10
2023-01-23T06:50:35.854Z,41.70
2023-01-23T06:52:48.434Z,37.60
2023-01-23T06:55:00.983Z,38.90
2023-01-23T06:57:13.806Z,40.90
2023-01-23T06:59:26.411Z,44.50
2023-01-23T07:01:39.136Z,40.70
2023-01-23T07:03:51.942Z,41.80
2023-01-23T07:06:07.314Z,43.80
2023-01-23T07:08:20.150Z,42.20
2023-01-23T07:10:32.860Z,41.00
2023-01-23T07:12:49.656Z,41.90
2023-01-23T07:15:05.283Z,44.20
2023-01-23T07:17:17.881Z,41.40
2023-01-23T07:19:30.458Z,44.40
2023-01-23T07:21:43.101Z,45.10
2023-01-23T07:23:56.132Z,45.40
2023-01-23T07:26:11.624Z,43.40
2023-01-23T07:28:24.111Z,44.00
2023-01-23T07:30:36.768Z,41.40
2023-01-23T07:32:49.786Z,43.50
2023-01-23T07:35:02.502Z,41.70
2023-01-23T07:37:15.160Z,41.00
2023-01-23T07:39:27.735Z,41.90
2023-01-23T07:41:41.547Z,39.50
2023-01-23T07:43:54.959Z,39.70
2023-01-23T07:46:09.493Z,39.30
2023-01-23T07:48:22.197Z,40.90
2023-01-23T07:50:35.768Z,42.00
2023-01-23T07:52:48.468Z,41.50
2023-01-23T07:55:01.015Z,42.40
2023-01-23T07:57:13.766Z,43.10
2023-01-23T07:59:26.430Z,44.30
2023-01-23T08:01:38.943Z,45.00
2023-01-23T08:03:52.787Z,43.60
2023-01-23T08:06:05.683Z,44.00
2023-01-23T08:08:18.215Z,45.10
2023-01-23T08:10:30.788Z,45.50
2023-01-23T08:12:43.462Z,47.40
2023-01-23T08:14:56.047Z,44.00
2023-01-23T08:17:08.620Z,44.70
2023-01-23T08:19:21.385Z,45.10
2023-01-23T08:21:34.120Z,46.30
2023-01-23T08:23:46.723Z,45.00
2023-01-23T08:26:01.609Z,49.70
2023-01-23T08:28:14.115Z,46.10
2023-01-23T08:30:26.697Z,47.90
2023-01-23T08:32:39.419Z,47.60
2023-01-23T08:34:51.941Z,45.80
2023-01-23T08:37:04.541Z,48.20
2023-01-23T08:39:18.042Z,47.10
2023-01-23T08:41:30.647Z,45.60
2023-01-23T08:43:43.384Z,45.00
2023-01-23T08:45:58.143Z,45.60
2023-01-23T08:48:10.706Z,42.30
2023-01-23T08:50:23.374Z,45.50
2023-01-23T08:52:35.973Z,41.80
2023-01-23T08:54:48.545Z,42.50
2023-01-23T08:57:01.732Z,40.90
2023-01-23T08:59:14.286Z,40.20
2023-01-23T09:01:27.832Z,39.10
2023-01-23T09:03:40.456Z,39.60
2023-01-23T09:05:53.366Z,40.70
2023-01-23T09:08:05.978Z,39.30
2023-01-23T09:10:18.854Z,37.60
2023-01-23T09:12:32.395Z,39.60
2023-01-23T09:14:44.956Z,37.60
2023-01-23T09:16:57.456Z,38.30
2023-01-23T09:19:12.005Z,37.20
2023-01-23T09:21:24.630Z,39.00
2023-01-23T09:23:37.619Z,40.10
2023-01-23T09:25:50.651Z,43.00
2023-01-23T09:28:03.476Z,40.50
2023-01-23T09:30:16.357Z,41.30
2023-01-23T09:32:28.930Z,41.60
2023-01-23T09:34:41.566Z,42.30
2023-01-23T09:36:54.120Z,38.00
2023-01-23T09:39:06.736Z,39.20
2023-01-23T09:41:23.057Z,39.80
2023-01-23T09:43:44.849Z,41.40
2023-01-23T09:46:22.248Z,41.90
2023-01-23T09:48:44.408Z,36.80
2023-01-23T09:51:04.645Z,38.70
2023-01-23T09:53:21.372Z,38.50
2023-01-23T09:55:43.999Z,42.20
2023-01-23T09:57:59.911Z,42.40
2023-01-23T10:00:29.045Z,40.30
2023-01-23T10:02:45.164Z,37.50
2023-01-23T10:04:59.444Z,41.30
2023-01-23T10:07:57.080Z,39.30
2023-01-23T10:10:27.806Z,39.60
2023-01-23T10:13:09.310Z,40.20
2023-01-23T10:15:35.588Z,40.50
2023-01-23T10:18:00.361Z,41.40
2023-01-23T10:20:48.092Z,42.30
2023-01-23T10:23:18.870Z,39.50
2023-01-23T10:25:37.655Z,42.40
2023-01-23T10:27:51.715Z,42.40
2023-01-23T10:30:17.154Z,42.60
2023-01-23T10:32:40.861Z,43.60
2023-01-23T10:35:11.375Z,43.90
2023-01-23T10:37:50.597Z,42.50
2023-01-23T10:40:11.558Z,41.90
2023-01-23T10:42:26.559Z,42.20
2023-01-23T10:44:39.514Z,42.80
2023-01-23T10:47:00.809Z,43.80
2023-01-23T10:49:27.377Z,42.30
2023-01-23T10:51:39.939Z,40.60
2023-01-23T10:54:16.997Z,40.50
2023-01-23T10:56:55.568Z,43.30
2023-01-23T10:59:22.611Z,44.10
2023-01-23T11:01:37.426Z,42.00
2023-01-23T11:03:51.257Z,43.50
2023-01-23T11:06:09.332Z,46.10
2023-01-23T11:08:31.156Z,47.80
2023-01-23T11:10:43.703Z,42.60
2023-01-23T11:12:56.434Z,44.40
2023-01-23T11:15:23.210Z,45.50
2023-01-23T11:17:36.231Z,46.00
2023-01-23T11:19:53.575Z,46.20
2023-01-23T11:22:24.339Z,46.10
2023-01-23T11:24:41.129Z,44.50
2023-01-23T11:27:15.439Z,45.50
2023-01-23T11:29:30.483Z,46.80
2023-01-23T11:31:43.192Z,43.90
2023-01-23T11:34:07.147Z,42.80
2023-01-23T11:36:29.952Z,46.00
2023-01-23T11:39:00.218Z,43.70
2023-01-23T11:41:13.158Z,44.10
2023-01-23T11:43:25.720Z,44.00
2023-01-23T11:45:57.843Z,42.40
2023-01-23T11:48:24.428Z,45.20
2023-01-23T11:50:54.989Z,44.40
2023-01-23T11:53:22.505Z,44.10
2023-01-23T11:56:21.219Z,43.60
2023-01-23T11:59:06.084Z,44.00
2023-01-23T12:01:39.926Z,50.90
2023-01-23T12:04:08.766Z,48.30
2023-01-23T12:06:30.918Z,48.90
2023-01-23T12:09:07.081Z,49.80
2023-01-23T12:11:22.336Z,51.10
2023-01-23T12:13:40.873Z,49.50
2023-01-23T12:16:12.056Z,52.50
2023-01-23T12:18:33.332Z,51.70
2023-01-23T12:21:07.719Z,50.60
2023-01-23T12:23:37.634Z,49.40
2023-01-23T12:26:06.887Z,50.40
2023-01-23T12:28:41.811Z,49.80
2023-01-23T12:31:13.867Z,46.90
2023-01-23T12:33:50.340Z,47.60
2023-01-23T12:36:22.459Z,45.80
2023-01-23T12:39:00.847Z,46.60
2023-01-23T12:41:25.492Z,47.20
2023-01-23T12:43:50.241Z,47.70
2023-01-23T12:46:11.429Z,46.60
2023-01-23T12:48:29.630Z,45.50
2023-01-23T12:50:56.461Z,46.30
2023-01-23T12:53:13.774Z,46.10
2023-01-23T12:55:47.691Z,42.20
2023-01-23T12:58:09.052Z,44.90
2023-01-23T13:00:34.826Z,41.30
2023-01-23T13:03:15.883Z,45.10
2023-01-23T13:05:43.138Z,42.70
2023-01-23T13:08:01.611Z,45.80
2023-01-23T13:10:20.192Z,42.30
2023-01-23T13:12:33.555Z,45.00
2023-01-23T13:17:41.299Z,43.80
2023-01-23T13:20:22.781Z,43.10
2023-01-23T13:22:38.541Z,45.60
2023-01-23T13:25:09.923Z,44.90
2023-01-23T13:27:52.287Z,44.50
2023-01-23T13:30:26.270Z,43.40
2023-01-23T13:32:38.914Z,43.20
2023-01-23T13:34:51.469Z,40.60
2023-01-23T13:37:45.699Z,41.70
2023-01-23T13:40:13.607Z,41.80
2023-01-23T13:42:28.747Z,43.10
2023-01-23T13:45:19.369Z,46.40
2023-01-23T14:22:32.345Z,49.10
2023-01-23T14:24:47.505Z,45.30
2023-01-23T14:27:08.356Z,46.60
2023-01-23T14:29:25.506Z,44.30
2023-01-23T14:31:41.967Z,45.80
2023-01-23T14:34:10.727Z,46.70
2023-01-23T14:36:24.681Z,46.50
2023-01-23T14:38:37.417Z,46.00
2023-01-23T14:40:51.322Z,45.70
2023-01-23T14:43:07.912Z,47.20
2023-01-23T14:45:20.764Z,45.40
2023-01-23T14:47:42.450Z,47.10
2023-01-23T14:49:56.406Z,48.10
2023-01-23T14:52:22.209Z,46.40
2023-01-23T14:54:36.825Z,45.90
2023-01-23T14:56:51.471Z,47.20
2023-01-23T14:59:07.738Z,45.50
2023-01-23T15:01:20.399Z,42.50
2023-01-23T15:03:42.306Z,45.40
2023-01-23T15:05:57.104Z,47.00
2023-01-23T15:08:20.377Z,44.40
2023-01-23T15:10:46.460Z,43.70
2023-01-23T15:13:10.022Z,46.20
2023-01-23T15:15:25.460Z,44.40
2023-01-23T15:17:44.343Z,44.80
2023-01-23T15:19:56.892Z,43.80
2023-01-23T15:22:21.840Z,44.20
2023-01-23T15:24:34.564Z,43.40
2023-01-23T15:27:03.650Z,43.30
2023-01-23T15:29:19.424Z,43.70
2023-01-23T15:31:39.084Z,43.30
2023-01-23T15:33:51.893Z,46.20
2023-01-23T15:36:08.260Z,43.90
2023-01-23T15:38:20.962Z,48.90
2023-01-23T15:40:35.324Z,44.20
2023-01-23T15:43:18.991Z,42.60
2023-01-23T15:45:32.076Z,45.50
2023-01-23T15:47:44.685Z,47.40
2023-01-23T15:50:01.713Z,46.70
2023-01-23T15:52:19.837Z,46.70
2023-01-23T15:54:33.757Z,44.40
2023-01-23T15:56:48.819Z,45.10
2023-01-23T15:59:06.459Z,46.30
2023-01-23T16:01:19.261Z,47.90
2023-01-23T16:03:31.871Z,47.40
2023-01-23T16:05:44.447Z,44.80
2023-01-23T16:08:01.052Z,47.60
2023-01-23T16:10:26.281Z,47.50
2023-01-23T16:12:40.023Z,48.40
2023-01-23T16:14:52.654Z,47.40
2023-01-23T16:17:16.467Z,47.50
2023-01-23T16:19:29.837Z,46.70
2023-01-23T16:21:47.766Z,46.90
2023-01-23T16:24:16.435Z,47.10
2023-01-23T16:26:29.847Z,48.50
2023-01-23T16:28:42.423Z,47.50
2023-01-23T16:30:55.214Z,47.40
2023-01-23T16:33:08.130Z,47.90
2023-01-23T16:35:23.052Z,48.40
2023-01-23T16:37:37.330Z,47.60
2023-01-23T16:39:50.283Z,49.10
2023-01-23T16:42:05.001Z,50.00
2023-01-23T16:44:18.779Z,51.70
2023-01-23T16:46:31.390Z,47.00
2023-01-23T16:48:44.493Z,47.30
2023-01-23T16:51:04.049Z,48.60
2023-01-23T16:53:29.987Z,47.80
2023-01-23T16:55:44.744Z,52.10
2023-01-23T16:57:58.370Z,52.80
2023-01-23T17:00:19.099Z,48.20
2023-01-23T17:02:35.730Z,48.70
2023-01-23T17:04:48.485Z,50.00
2023-01-23T17:07:01.109Z,49.50
2023-01-23T17:09:14.375Z,46.60
2023-01-23T17:11:34.161Z,46.50
2023-01-23T17:13:47.537Z,47.70
2023-01-23T17:16:01.130Z,51.50
2023-01-23T17:18:23.330Z,51.20
2023-01-23T17:20:35.905Z,49.10
2023-01-23T17:22:48.485Z,55.80
2023-01-23T17:25:00.983Z,51.00
2023-01-23T17:27:13.665Z,47.20
2023-01-23T17:29:26.236Z,49.50
2023-01-23T17:31:39.246Z,50.30
2023-01-23T17:33:55.891Z,52.70
2023-01-23T17:36:08.550Z,53.30
2023-01-23T17:38:26.800Z,53.10
2023-01-23T17:40:40.633Z,54.10
2023-01-23T17:42:53.979Z,54.50
2023-01-23T17:45:17.790Z,53.80
2023-01-23T17:47:32.399Z,51.80
2023-01-23T17:49:52.046Z,51.30
2023-01-23T17:52:04.947Z,53.70
2023-01-23T17:54:19.382Z,52.20
2023-01-23T17:56:32.329Z,49.80
2023-01-23T17:58:45.161Z,52.70
2023-01-23T18:00:57.796Z,53.00
2023-01-23T18:03:16.868Z,49.50
2023-01-23T18:05:29.689Z,51.00
2023-01-23T18:07:53.059Z,47.70
2023-01-23T18:10:09.210Z,50.20
2023-01-23T18:13:00.198Z,50.80
2023-01-23T18:15:19.592Z,53.40
2023-01-23T18:17:42.247Z,51.50
2023-01-23T18:19:55.952Z,49.90
2023-01-23T18:22:11.911Z,52.90
2023-01-23T18:24:28.331Z,54.70
2023-01-23T18:26:50.854Z,50.30
2023-01-23T18:29:30.239Z,51.20
2023-01-23T18:32:03.064Z,53.90
2023-01-23T18:34:29.429Z,54.40
2023-01-23T18:36:57.440Z,57.40
2023-01-23T18:39:31.952Z,52.60
2023-01-23T18:42:06.415Z,53.60
2023-01-23T18:44:25.983Z,57.00
2023-01-23T18:46:38.784Z,55.60
2023-01-23T18:48:51.681Z,55.70
2023-01-23T18:51:29.482Z,53.30
2023-01-23T18:54:07.179Z,56.10
2023-01-23T18:56:27.406Z,54.80
2023-01-23T18:59:10.316Z,57.20
2023-01-23T19:01:41.459Z,57.80
2023-01-23T19:03:55.283Z,56.60
2023-01-23T19:06:18.795Z,56.10
2023-01-23T19:08:32.717Z,58.70
2023-01-23T19:10:49.248Z,57.70
2023-01-23T19:13:06.248Z,56.20
2023-01-23T19:15:56.145Z,54.60
2023-01-23T19:18:40.151Z,56.20
2023-01-23T19:21:01.685Z,57.60
2023-01-23T19:23:36.851Z,55.60
2023-01-23T19:25:49.558Z,54.50
2023-01-23T19:28:02.776Z,54.60
2023-01-23T19:30:15.860Z,52.10
2023-01-23T19:32:28.882Z,56.10
2023-01-23T19:34:42.979Z,54.60
2023-01-23T19:36:55.544Z,54.70
2023-01-23T19:39:08.325Z,57.50
2023-01-23T19:41:25.169Z,58.80
2023-01-23T19:43:37.796Z,56.30
2023-01-23T19:45:50.390Z,57.80
2023-01-23T19:48:03.079Z,56.60
2023-01-23T19:50:18.091Z,56.90
2023-01-23T19:52:30.650Z,55.20
2023-01-23T19:54:43.208Z,57.70
2023-01-23T19:56:55.782Z,54.40
2023-01-23T19:59:08.457Z,55.30
2023-01-23T20:01:27.618Z,56.60
2023-01-23T20:03:41.074Z,58.80
2023-01-23T20:05:55.741Z,54.60
2023-01-23T20:08:09.226Z,57.00
2023-01-23T20:10:23.022Z,58.20
2023-01-23T20:12:44.605Z,58.20
2023-01-23T20:14:57.701Z,56.70
2023-01-23T20:17:10.511Z,56.70
2023-01-23T20:19:23.148Z,59.60
2023-01-23T20:21:36.008Z,58.70
2023-01-23T20:23:49.375Z,58.30
2023-01-23T20:26:02.186Z,58.20
2023-01-23T20:28:16.628Z,59.10
2023-01-23T20:30:31.420Z,56.50
2023-01-23T20:32:45.157Z,59.20
2023-01-23T20:34:58.306Z,57.60
2023-01-23T20:37:11.089Z,56.10
2023-01-23T20:39:24.666Z,55.80
2023-01-23T20:41:37.280Z,57.10
2023-01-23T20:43:50.209Z,56.80
2023-01-23T20:46:05.748Z,56.30
2023-01-23T20:48:20.011Z,59.40
2023-01-23T20:50:32.607Z,59.10
2023-01-23T20:53:03.730Z,57.90
2023-01-23T20:55:16.505Z,56.40
2023-01-23T20:57:49.096Z,53.80
2023-01-23T21:00:01.839Z,52.10
2023-01-23T21:02:23.329Z,55.00
2023-01-23T21:04:36.646Z,55.60
2023-01-23T21:06:49.255Z,55.00
2023-01-23T21:09:01.805Z,55.70
2023-01-23T21:11:20.053Z,54.10
2023-01-23T21:13:33.118Z,56.70
2023-01-23T21:15:59.410Z,53.30
2023-01-23T21:18:12.268Z,56.70
2023-01-23T21:20:24.861Z,55.30
2023-01-23T21:22:37.426Z,57.60
2023-01-23T21:24:50.025Z,62.40
2023-01-23T21:27:04.458Z,59.40
2023-01-23T21:29:17.260Z,64.90
2023-01-23T21:31:35.674Z,60.70
2023-01-23T21:33:48.485Z,65.10
2023-01-23T21:36:02.044Z,66.10
2023-01-23T21:38:14.611Z,65.90
2023-01-23T21:40:27.259Z,66.60
2023-01-23T21:42:39.856Z,64.70
2023-01-23T21:44:55.116Z,64.50
2023-01-23T21:47:07.674Z,62.90
2023-01-23T21:49:20.397Z,62.20
2023-01-23T21:51:32.987Z,63.70
2023-01-23T21:53:47.636Z,59.20
2023-01-23T21:56:00.243Z,58.80
2023-01-23T21:58:12.757Z,61.60
2023-01-23T22:00:44.238Z,56.50
2023-01-23T22:02:56.961Z,54.50
2023-01-23T22:05:09.624Z,56.60
2023-01-23T22:07:22.214Z,55.20
2023-01-23T22:09:34.779Z,56.30
2023-01-23T22:11:48.596Z,57.10
2023-01-23T22:14:01.238Z,54.80
2023-01-23T22:16:13.965Z,52.90
2023-01-23T22:18:27.015Z,54.00
2023-01-23T22:20:39.529Z,56.50
2023-01-23T22:22:52.097Z,57.70
2023-01-23T22:25:05.047Z,56.80
2023-01-23T22:27:17.995Z,53.80
2023-01-23T22:29:30.584Z,51.50
2023-01-23T22:31:43.430Z,54.10
2023-01-23T22:33:56.064Z,53.60
2023-01-23T22:36:14.088Z,53.30
2023-01-23T22:38:26.775Z,53.10
2023-01-23T22:40:39.582Z,53.90
2023-01-23T22:42:52.331Z,52.40
2023-01-23T22:45:05.436Z,51.10
2023-01-23T22:47:18.033Z,52.70
2023-01-23T22:49:30.593Z,55.50
2023-01-23T22:51:43.175Z,54.30
2023-01-23T22:53:57.335Z,51.50
2023-01-23T22:56:10.946Z,53.20
2023-01-23T22:58:23.765Z,53.30
2023-01-23T23:00:36.352Z,55.80
2023-01-23T23:02:48.974Z,54.20
2023-01-23T23:05:01.686Z,52.60
2023-01-23T23:07:14.405Z,54.90
2023-01-23T23:09:27.537Z,55.30
2023-01-23T23:11:40.635Z,56.50
2023-01-23T23:13:55.822Z,56.20
2023-01-23T23:16:13.709Z,54.00
2023-01-23T23:18:27.875Z,56.20
2023-01-23T23:20:40.489Z,52.40
2023-01-23T23:22:53.132Z,55.60
2023-01-23T23:25:06.314Z,53.60
2023-01-23T23:27:19.064Z,51.50
2023-01-23T23:29:31.852Z,54.60
2023-01-23T23:31:44.616Z,52.70
2023-01-23T23:33:57.378Z,52.70
2023-01-23T23:36:10.273Z,53.10
2023-01-23T23:38:23.090Z,53.30
2023-01-23T23:40:35.983Z,52.70
2023-01-23T23:42:48.555Z,54.90
2023-01-23T23:45:01.162Z,53.40
2023-01-23T23:47:13.907Z,53.10
2023-01-23T23:49:26.635Z,54.80
2023-01-23T23:51:39.152Z,51.80
2023-01-23T23:53:51.921Z,54.70
2023-01-23T23:56:05.912Z,53.30
2023-01-23T23:58:18.517Z,54.60
